Time;durP1;ratioP1;P1;durP2;ratioP2;P2;SDS_P1;SDS_P2;PMS_P1;PMS_P2;Temp;Humidity;BMP_temperature;BMP_pressure;BME280_temperature;BME280_humidity;BME280_pressure;Samples;Min_cycle;Max_cycle;Signal;HPM_P1;HPM_P2
2024/03/30 00:00:09;;;;;;;;;;;;;;;14.07;72.72;95508.55;108622;1274;24220;-88
2024/03/30 00:02:35;;;;;;;;;;;;;;;14.09;72.74;95506.23;108553;1275;124593;-87
2024/03/30 00:05:02;;;;;;;;;;;;;;;14.10;72.78;95507.14;108634;1277;23257;-87
2024/03/30 00:07:28;;;;;;;;;;;;;;;14.07;72.85;95502.80;108742;1279;23753;-87
2024/03/30 00:09:54;;;;;;;;;;;;;;;14.06;72.62;95496.55;108515;1277;124335;-87
2024/03/30 00:12:21;;;;;;;;;;;;;;;14.10;72.66;95501.40;108766;1275;22469;-87
2024/03/30 00:14:47;;;;;;;;;;;;;;;14.09;72.71;95504.41;108580;1280;124267;-87
2024/03/30 00:17:14;;;;;;;;;;;;;;;14.07;72.69;95503.45;108625;1271;22616;-87
2024/03/30 00:19:40;;;;;;;;;;;;;;;14.06;72.88;95500.90;108646;1278;22479;-87
2024/03/30 00:22:07;;;;;;;;;;;;;;;14.04;72.91;95501.21;108680;1280;124203;-87
2024/03/30 00:24:34;;;;;;;;;;;;;;;14.02;72.81;95508.80;108632;1274;22475;-87
2024/03/30 00:27:00;;;;;;;;;;;;;;;14.03;72.86;95497.22;108468;1280;123397;-87
2024/03/30 00:29:26;;;;;;;;;;;;;;;14.03;72.86;95493.52;108612;1276;23614;-87
2024/03/30 00:31:53;;;;;;;;;;;;;;;14.03;72.92;95490.95;108496;1281;124847;-87
2024/03/30 00:34:19;;;;;;;;;;;;;;;13.98;72.90;95485.33;108621;1280;23159;-87
2024/03/30 00:36:46;;;;;;;;;;;;;;;13.97;72.82;95489.38;108632;1261;22617;-87
2024/03/30 00:39:12;;;;;;;;;;;;;;;13.97;72.73;95486.03;108502;1273;124972;-87
2024/03/30 00:41:44;;;;;;;;;;;;;;;14.00;72.66;95482.47;108614;1275;24848;-87
2024/03/30 00:44:16;;;;;;;;;;;;;;;14.01;72.33;95475.45;108529;1280;125539;-87
2024/03/30 00:46:45;;;;;;;;;;;;;;;14.03;72.09;95480.77;108681;1276;25227;-87
2024/03/30 00:49:19;;;;;;;;;;;;;;;14.05;72.27;95479.14;108575;1280;22553;-87
2024/03/30 00:51:45;;;;;;;;;;;;;;;14.02;72.04;95477.45;108530;1277;124914;-87
2024/03/30 00:54:11;;;;;;;;;;;;;;;14.04;71.93;95474.01;108577;1276;22473;-87
2024/03/30 00:56:38;;;;;;;;;;;;;;;14.05;71.87;95477.37;108444;1281;125285;-87
2024/03/30 00:59:05;;;;;;;;;;;;;;;14.06;71.89;95481.73;108609;1270;22703;-87
2024/03/30 01:01:31;;;;;;;;;;;;;;;14.04;71.96;95480.20;108656;1277;22587;-87
2024/03/30 01:03:58;;;;;;;;;;;;;;;14.01;71.80;95479.73;108522;1276;125142;-87
2024/03/30 01:06:24;;;;;;;;;;;;;;;14.01;72.03;95479.20;108658;1280;22467;-86
2024/03/30 01:08:50;;;;;;;;;;;;;;;14.01;71.87;95481.45;108603;1274;125070;-87
2024/03/30 01:11:17;;;;;;;;;;;;;;;14.00;71.89;95486.84;108534;1280;22503;-87
2024/03/30 01:13:43;;;;;;;;;;;;;;;13.99;72.03;95486.85;108632;1273;22457;-87
2024/03/30 01:16:14;;;;;;;;;;;;;;;13.98;71.87;95483.69;108475;1279;124895;-87
2024/03/30 01:18:40;;;;;;;;;;;;;;;13.99;71.76;95488.98;108652;1279;23490;-87
2024/03/30 01:21:07;;;;;;;;;;;;;;;14.00;71.74;95497.05;108448;1278;125062;-87
2024/03/30 01:23:35;;;;;;;;;;;;;;;13.98;71.89;95489.92;108670;1276;22509;-86
2024/03/30 01:26:02;;;;;;;;;;;;;;;13.97;72.13;95493.10;108542;1280;125057;-87
2024/03/30 01:28:29;;;;;;;;;;;;;;;13.94;72.17;95490.61;108581;1277;22561;-87
2024/03/30 01:30:55;;;;;;;;;;;;;;;13.92;72.17;95483.42;108660;1276;23321;-86
2024/03/30 01:33:22;;;;;;;;;;;;;;;13.90;72.32;95484.40;108475;1274;124962;-87
2024/03/30 01:35:48;;;;;;;;;;;;;;;13.88;72.28;95486.92;108661;1275;24711;-88
2024/03/30 01:38:15;;;;;;;;;;;;;;;13.86;72.05;95499.84;108595;1273;125519;-87
2024/03/30 01:40:41;;;;;;;;;;;;;;;13.89;71.83;95492.96;108627;1280;22654;-86
2024/03/30 01:43:07;;;;;;;;;;;;;;;13.90;71.91;95494.44;108646;1274;23102;-87
2024/03/30 01:45:34;;;;;;;;;;;;;;;13.91;71.73;95483.33;108560;1273;125040;-87
2024/03/30 01:48:04;;;;;;;;;;;;;;;13.91;71.76;95485.01;108586;1276;22626;-87
2024/03/30 01:50:30;;;;;;;;;;;;;;;13.89;71.70;95481.42;108544;1280;125071;-87
2024/03/30 01:52:57;;;;;;;;;;;;;;;13.91;71.46;95478.11;108578;1280;25390;-87
2024/03/30 01:55:23;;;;;;;;;;;;;;;13.93;71.15;95476.34;108595;1279;22631;-87
2024/03/30 01:57:50;;;;;;;;;;;;;;;13.94;71.17;95479.81;108557;1280;124978;-87
2024/03/30 02:00:17;;;;;;;;;;;;;;;13.91;70.84;95476.61;108632;1276;22528;-87
2024/03/30 02:02:43;;;;;;;;;;;;;;;13.92;70.47;95471.93;108499;1280;124571;-87
2024/03/30 02:05:10;;;;;;;;;;;;;;;13.94;70.69;95473.69;108627;1273;22543;-87
2024/03/30 02:07:36;;;;;;;;;;;;;;;13.94;70.60;95476.81;108598;1279;24210;-88
2024/03/30 02:10:03;;;;;;;;;;;;;;;13.92;70.67;95483.66;108489;1275;124394;-88
2024/03/30 02:12:30;;;;;;;;;;;;;;;13.87;70.56;95487.69;108602;1279;22603;-88
2024/03/30 02:14:56;;;;;;;;;;;;;;;13.86;70.77;95486.14;108501;1279;124257;-88
2024/03/30 02:17:23;;;;;;;;;;;;;;;13.86;70.57;95489.91;108617;1279;24890;-87
2024/03/30 02:19:56;;;;;;;;;;;;;;;13.87;70.67;95499.75;108622;1280;22556;-87
2024/03/30 02:22:22;;;;;;;;;;;;;;;13.86;70.90;95502.08;108499;1280;125094;-88
2024/03/30 02:24:49;;;;;;;;;;;;;;;13.82;70.79;95501.03;108677;1279;24226;-88
2024/03/30 02:27:15;;;;;;;;;;;;;;;13.84;70.71;95502.41;108485;1280;124282;-88
2024/03/30 02:29:46;;;;;;;;;;;;;;;13.88;70.78;95503.54;108652;1270;22505;-87
2024/03/30 02:32:12;;;;;;;;;;;;;;;13.89;70.68;95511.28;108537;1278;124408;-88
2024/03/30 02:34:39;;;;;;;;;;;;;;;13.86;70.72;95510.80;108693;1278;24900;-87
2024/03/30 02:37:05;;;;;;;;;;;;;;;13.90;70.12;95511.72;108615;1280;22560;-88
2024/03/30 02:39:32;;;;;;;;;;;;;;;13.94;70.46;95504.36;108540;1278;124223;-87
2024/03/30 02:41:58;;;;;;;;;;;;;;;13.92;70.41;95507.97;108628;1278;23168;-87
2024/03/30 02:44:31;;;;;;;;;;;;;;;13.90;69.85;95506.92;108548;1280;124488;-88
2024/03/30 02:46:58;;;;;;;;;;;;;;;13.98;68.92;95504.31;108671;1275;22928;-87
2024/03/30 02:49:24;;;;;;;;;;;;;;;14.04;68.73;95504.46;108623;1270;25391;-88
2024/03/30 02:51:51;;;;;;;;;;;;;;;14.07;68.78;95500.29;108476;1277;124616;-87
2024/03/30 02:54:17;;;;;;;;;;;;;;;14.08;68.21;95499.02;108620;1280;22468;-87
2024/03/30 02:56:43;;;;;;;;;;;;;;;14.12;68.46;95498.58;108480;1276;124244;-87
2024/03/30 02:59:10;;;;;;;;;;;;;;;14.13;68.30;95493.58;108560;1274;22516;-87
2024/03/30 03:01:37;;;;;;;;;;;;;;;14.15;67.21;95496.30;108642;1279;22589;-88
2024/03/30 03:04:04;;;;;;;;;;;;;;;14.18;67.36;95494.83;108547;1274;124433;-87
2024/03/30 03:06:30;;;;;;;;;;;;;;;14.21;66.89;95499.17;108542;1273;22562;-87
2024/03/30 03:08:57;;;;;;;;;;;;;;;14.23;66.57;95491.79;108584;1279;124172;-87
2024/03/30 03:11:23;;;;;;;;;;;;;;;14.30;65.59;95488.70;108644;1272;22661;-88
2024/03/30 03:13:49;;;;;;;;;;;;;;;14.39;64.62;95479.35;108575;1279;22474;-87
2024/03/30 03:16:16;;;;;;;;;;;;;;;14.46;63.68;95490.54;108576;1279;124175;-88
2024/03/30 03:18:42;;;;;;;;;;;;;;;14.56;63.04;95491.42;108663;1280;25411;-87
2024/03/30 03:21:09;;;;;;;;;;;;;;;14.66;62.73;95486.63;108493;1275;124221;-87
2024/03/30 03:23:36;;;;;;;;;;;;;;;14.74;62.61;95489.50;108596;1273;22561;-87
2024/03/30 03:26:03;;;;;;;;;;;;;;;14.80;61.66;95492.29;108473;1277;124321;-87
2024/03/30 03:28:29;;;;;;;;;;;;;;;14.87;60.91;95494.70;108565;1280;22587;-88
2024/03/30 03:30:56;;;;;;;;;;;;;;;14.97;60.16;95487.85;108515;1280;22526;-87
2024/03/30 03:33:22;;;;;;;;;;;;;;;15.04;60.02;95478.98;108440;1280;124170;-87
2024/03/30 03:35:48;;;;;;;;;;;;;;;15.06;60.29;95483.02;108564;1273;23958;-88
2024/03/30 03:38:15;;;;;;;;;;;;;;;15.08;60.73;95491.24;108414;1277;124841;-88
2024/03/30 03:40:41;;;;;;;;;;;;;;;15.05;60.27;95494.18;108588;1274;23196;-88
2024/03/30 03:43:07;;;;;;;;;;;;;;;15.05;59.69;95494.91;108551;1275;22504;-87
2024/03/30 03:45:34;;;;;;;;;;;;;;;15.10;58.90;95504.79;108544;1280;124220;-88
2024/03/30 03:48:00;;;;;;;;;;;;;;;15.14;59.11;95501.95;108548;1280;22507;-88
2024/03/30 03:50:26;;;;;;;;;;;;;;;15.17;58.60;95508.61;108445;1273;124440;-88
2024/03/30 03:52:53;;;;;;;;;;;;;;;15.24;58.03;95506.96;108554;1280;23323;-88
2024/03/30 03:55:19;;;;;;;;;;;;;;;15.36;56.31;95505.90;108520;1280;22538;-88
2024/03/30 03:57:45;;;;;;;;;;;;;;;15.46;57.07;95504.09;108512;1273;124233;-87
2024/03/30 04:00:12;;;;;;;;;;;;;;;15.45;57.77;95510.30;108548;1280;22554;-87
2024/03/30 04:02:38;;;;;;;;;;;;;;;15.43;56.86;95514.96;108453;1280;124503;-87
2024/03/30 04:05:05;;;;;;;;;;;;;;;15.44;57.37;95512.05;108468;1280;22462;-87
2024/03/30 04:07:32;;;;;;;;;;;;;;;15.40;57.43;95513.45;108641;1273;23252;-87
2024/03/30 04:09:59;;;;;;;;;;;;;;;15.35;57.96;95511.21;108339;1281;124176;-87
2024/03/30 04:12:25;;;;;;;;;;;;;;;15.31;57.56;95505.55;108552;1273;22692;-87
2024/03/30 04:14:51;;;;;;;;;;;;;;;15.30;57.56;95501.39;108588;1273;124250;-86
2024/03/30 04:17:18;;;;;;;;;;;;;;;15.27;57.52;95505.09;108559;1273;23309;-87
2024/03/30 04:19:44;;;;;;;;;;;;;;;15.30;56.31;95510.53;108548;1273;23435;-87
2024/03/30 04:22:10;;;;;;;;;;;;;;;15.39;56.23;95515.11;108477;1280;124286;-87
2024/03/30 04:24:37;;;;;;;;;;;;;;;15.44;56.68;95517.35;108549;1280;22602;-87
2024/03/30 04:27:04;;;;;;;;;;;;;;;15.45;56.60;95523.59;108485;1280;124274;-87
2024/03/30 04:29:33;;;;;;;;;;;;;;;15.41;57.43;95524.98;108666;1273;23110;-87
2024/03/30 04:31:59;;;;;;;;;;;;;;;15.35;57.88;95529.96;108460;1278;124334;-87
2024/03/30 04:34:25;;;;;;;;;;;;;;;15.27;58.57;95520.11;108633;1280;22583;-87
2024/03/30 04:36:52;;;;;;;;;;;;;;;15.20;58.49;95520.66;108601;1280;23017;-86
2024/03/30 04:39:18;;;;;;;;;;;;;;;15.16;58.63;95519.63;108549;1273;124413;-87
2024/03/30 04:41:44;;;;;;;;;;;;;;;15.13;59.13;95521.48;108542;1281;22633;-87
2024/03/30 04:44:11;;;;;;;;;;;;;;;15.07;59.01;95516.30;108508;1275;124540;-87
2024/03/30 04:46:37;;;;;;;;;;;;;;;15.06;59.15;95517.91;108519;1280;23690;-87
2024/03/30 04:49:04;;;;;;;;;;;;;;;15.05;59.28;95515.41;108577;1280;22837;-87
2024/03/30 04:51:30;;;;;;;;;;;;;;;15.03;58.83;95514.71;108466;1281;124541;-87
2024/03/30 04:53:56;;;;;;;;;;;;;;;15.04;59.18;95518.07;108523;1280;22922;-87
2024/03/30 04:56:24;;;;;;;;;;;;;;;15.04;59.31;95523.83;108486;1273;124411;-87
2024/03/30 04:58:50;;;;;;;;;;;;;;;15.05;59.30;95526.20;108625;1280;22591;-87
2024/03/30 05:01:17;;;;;;;;;;;;;;;15.02;59.93;95526.66;108558;1280;25169;-87
2024/03/30 05:03:43;;;;;;;;;;;;;;;14.95;60.57;95526.48;108500;1277;124364;-87
2024/03/30 05:06:10;;;;;;;;;;;;;;;14.89;61.11;95525.98;108576;1275;24145;-87
2024/03/30 05:08:36;;;;;;;;;;;;;;;14.84;61.45;95536.48;108468;1277;124708;-87
2024/03/30 05:11:03;;;;;;;;;;;;;;;14.78;62.08;95540.11;108555;1280;24818;-86
2024/03/30 05:13:29;;;;;;;;;;;;;;;14.73;62.20;95542.36;108691;1276;22680;-87
2024/03/30 05:15:55;;;;;;;;;;;;;;;14.69;62.68;95545.94;108439;1280;124315;-87
2024/03/30 05:18:22;;;;;;;;;;;;;;;14.65;63.17;95544.08;108551;1281;23997;-87
2024/03/30 05:20:58;;;;;;;;;;;;;;;14.63;63.20;95549.17;108494;1280;124927;-87
2024/03/30 05:23:25;;;;;;;;;;;;;;;14.62;63.24;95549.67;108572;1273;22561;-87
2024/03/30 05:25:53;;;;;;;;;;;;;;;14.64;63.40;95544.50;108569;1276;22565;-87
2024/03/30 05:28:20;;;;;;;;;;;;;;;14.63;63.56;95540.36;108845;1275;124830;-87
2024/03/30 05:30:50;;;;;;;;;;;;;;;14.63;63.49;95537.30;108640;1280;25376;-87
2024/03/30 05:33:17;;;;;;;;;;;;;;;14.64;63.60;95538.74;108519;1280;124346;-87
2024/03/30 05:35:45;;;;;;;;;;;;;;;14.65;63.83;95537.38;108619;1275;23127;-87
2024/03/30 05:38:11;;;;;;;;;;;;;;;14.65;64.03;95534.97;108542;1268;124380;-87
2024/03/30 05:40:37;;;;;;;;;;;;;;;14.65;64.33;95536.77;108663;1280;22470;-87
2024/03/30 05:43:04;;;;;;;;;;;;;;;14.65;64.55;95535.23;108619;1268;22539;-87
2024/03/30 05:45:31;;;;;;;;;;;;;;;14.65;64.45;95540.95;108558;1275;124320;-87
2024/03/30 05:47:57;;;;;;;;;;;;;;;14.66;64.68;95545.77;108644;1280;22615;-88
2024/03/30 05:50:24;;;;;;;;;;;;;;;14.67;64.57;95542.77;108575;1262;124663;-87
2024/03/30 05:52:50;;;;;;;;;;;;;;;14.71;64.49;95534.89;108664;1280;22746;-87
2024/03/30 05:55:16;;;;;;;;;;;;;;;14.75;64.45;95526.49;108522;1280;22444;-88
2024/03/30 05:57:43;;;;;;;;;;;;;;;14.75;64.28;95533.52;108440;1280;124501;-87
2024/03/30 06:00:10;;;;;;;;;;;;;;;14.79;64.30;95536.25;108570;1280;22538;-87
2024/03/30 06:02:37;;;;;;;;;;;;;;;14.82;64.36;95537.13;109913;1279;124515;-88
2024/03/30 06:05:04;;;;;;;;;;;;;;;14.82;64.68;95540.02;109029;1272;22561;-87
2024/03/30 06:07:30;;;;;;;;;;;;;;;14.83;64.44;95544.73;108531;1280;22548;-87
2024/03/30 06:09:57;;;;;;;;;;;;;;;14.85;64.07;95550.06;108567;1276;124332;-87
2024/03/30 06:12:23;;;;;;;;;;;;;;;14.87;63.71;95541.48;108664;1275;22634;-87
2024/03/30 06:14:50;;;;;;;;;;;;;;;14.90;63.75;95536.77;108549;1280;124344;-87
2024/03/30 06:17:16;;;;;;;;;;;;;;;14.90;63.38;95534.98;108631;1280;22513;-86
2024/03/30 06:19:43;;;;;;;;;;;;;;;14.92;63.25;95535.35;108602;1280;23296;-87
2024/03/30 06:22:09;;;;;;;;;;;;;;;14.95;62.96;95536.19;108505;1275;124280;-87
2024/03/30 06:24:44;;;;;;;;;;;;;;;14.97;63.06;95530.44;108677;1273;22587;-87
2024/03/30 06:27:13;;;;;;;;;;;;;;;14.98;63.71;95535.89;108522;1275;124501;-88
2024/03/30 06:29:48;;;;;;;;;;;;;;;14.96;63.00;95536.70;108739;1280;22553;-86
2024/03/30 06:32:15;;;;;;;;;;;;;;;15.01;62.47;95540.95;108552;1273;124572;-88
2024/03/30 06:34:52;;;;;;;;;;;;;;;15.05;62.72;95549.80;109012;1278;25240;-87
2024/03/30 06:43:53;;;;;;;;;;;;;;;15.19;62.37;95560.14;109273;1283;23819;-87
2024/03/30 06:46:21;;;;;;;;;;;;;;;15.27;61.99;95567.98;108808;1278;124274;-88
2024/03/30 06:48:49;;;;;;;;;;;;;;;15.33;61.70;95570.59;108338;1280;22472;-88
2024/03/30 06:51:36;;;;;;;;;;;;;;;15.40;62.02;95573.39;108549;1280;124498;-88
2024/03/30 06:58:15;;;;;;;;;;;;;;;15.50;61.14;95566.55;108308;1286;124761;-91
2024/03/30 07:01:03;;;;;;;;;;;;;;;;;;;;;
2024/03/30 07:03:57;;;;;;;;;;;;;;;15.65;60.38;95564.72;107279;1289;123480;-90
2024/03/30 07:06:23;;;;;;;;;;;;;;;15.71;61.02;95567.64;108163;1284;23026;-90
2024/03/30 07:08:53;;;;;;;;;;;;;;;15.78;60.31;95565.11;108423;1280;124618;-90
2024/03/30 07:11:23;;;;;;;;;;;;;;;15.84;60.68;95567.36;108633;1277;22552;-90
2024/03/30 07:14:07;;;;;;;;;;;;;;;15.92;60.26;95564.89;108602;1278;24544;-90
2024/03/30 07:16:34;;;;;;;;;;;;;;;15.98;60.05;95566.90;108574;1273;124554;-90
2024/03/30 07:19:06;;;;;;;;;;;;;;;16.02;59.61;95568.59;108692;1275;22450;-90
2024/03/30 07:28:44;;;;;;;;;;;;;;;16.26;59.57;95590.64;108543;1275;124455;-91
2024/03/30 07:32:06;;;;;;;;;;;;;;;;;;;;;
2024/03/30 07:34:47;;;;;;;;;;;;;;;16.41;58.77;95591.98;108311;1280;125590;-91
2024/03/30 07:37:14;;;;;;;;;;;;;;;16.46;58.69;95589.52;108714;1274;22445;-91
2024/03/30 07:39:40;;;;;;;;;;;;;;;16.54;58.08;95583.29;108542;1277;124244;-90
2024/03/30 07:42:07;;;;;;;;;;;;;;;16.62;57.22;95581.38;108669;1273;22528;-91
2024/03/30 07:44:37;;;;;;;;;;;;;;;16.68;57.74;95581.55;108806;1280;22929;-92
2024/03/30 07:47:10;;;;;;;;;;;;;;;16.75;56.33;95576.06;108691;1274;124798;-90
2024/03/30 07:49:39;;;;;;;;;;;;;;;16.83;56.82;95578.67;108829;1275;22517;-91
2024/03/30 07:52:06;;;;;;;;;;;;;;;16.90;56.03;95582.56;108576;1278;124322;-91
2024/03/30 07:54:32;;;;;;;;;;;;;;;17.00;55.87;95579.77;108709;1275;22543;-91
2024/03/30 07:57:02;;;;;;;;;;;;;;;17.09;55.94;95575.42;108677;1268;25232;-92
2024/03/30 07:59:32;;;;;;;;;;;;;;;17.17;55.63;95567.61;108831;1278;25198;-91
2024/03/30 08:02:05;;;;;;;;;;;;;;;17.25;54.75;95571.77;108654;1278;23219;-91
2024/03/30 08:04:33;;;;;;;;;;;;;;;17.36;53.68;95571.95;108669;1280;124347;-91
2024/03/30 08:06:59;;;;;;;;;;;;;;;17.44;52.39;95574.48;108720;1272;22607;-90
2024/03/30 08:09:35;;;;;;;;;;;;;;;17.49;52.24;95582.73;108597;1274;124735;-91
2024/03/30 08:12:02;;;;;;;;;;;;;;;17.55;52.32;95586.46;108670;1267;22510;-91
2024/03/30 08:14:37;;;;;;;;;;;;;;;17.58;51.78;95579.91;108673;1278;23717;-92
2024/03/30 08:17:04;;;;;;;;;;;;;;;17.60;52.58;95590.96;108554;1278;125160;-91
2024/03/30 08:19:31;;;;;;;;;;;;;;;17.63;52.29;95593.98;108737;1280;22518;-91
2024/03/30 08:21:57;;;;;;;;;;;;;;;17.67;53.63;95603.19;108702;1275;124474;-91
2024/03/30 08:24:24;;;;;;;;;;;;;;;17.72;53.85;95611.65;108847;1280;25403;-91
2024/03/30 08:26:51;;;;;;;;;;;;;;;17.77;54.20;95608.41;108912;1272;22548;-91
2024/03/30 08:29:19;;;;;;;;;;;;;;;17.81;52.23;95607.67;108650;1280;124452;-91
2024/03/30 08:31:45;;;;;;;;;;;;;;;17.88;52.16;95601.02;108882;1275;22507;-90
2024/03/30 08:34:11;;;;;;;;;;;;;;;17.96;51.29;95597.44;108705;1275;124837;-90
2024/03/30 08:36:38;;;;;;;;;;;;;;;18.04;50.58;95590.34;108704;1275;22763;-91
2024/03/30 08:39:04;;;;;;;;;;;;;;;18.10;50.91;95598.31;108664;1272;124371;-91
2024/03/30 08:41:31;;;;;;;;;;;;;;;18.17;49.74;95595.38;108710;1275;22580;-90
2024/03/30 08:43:58;;;;;;;;;;;;;;;18.23;51.64;95593.29;108766;1280;22647;-90
2024/03/30 08:46:24;;;;;;;;;;;;;;;18.29;51.20;95592.92;108593;1278;124316;-89
2024/03/30 08:48:50;;;;;;;;;;;;;;;18.36;49.18;95591.60;108778;1279;22460;-91
2024/03/30 08:51:17;;;;;;;;;;;;;;;18.42;48.18;95584.31;108752;1278;124359;-89
2024/03/30 08:53:44;;;;;;;;;;;;;;;18.48;49.65;95595.55;108905;1278;22557;-91
2024/03/30 08:56:13;;;;;;;;;;;;;;;18.55;50.32;95595.67;108936;1278;24338;-92
2024/03/30 08:58:39;;;;;;;;;;;;;;;18.63;50.00;95595.71;108731;1275;125175;-91
2024/03/30 09:01:05;;;;;;;;;;;;;;;18.72;50.33;95589.00;108772;1273;24218;-90
2024/03/30 09:03:33;;;;;;;;;;;;;;;18.80;50.01;95592.52;108854;1275;124401;-91
2024/03/30 09:05:59;;;;;;;;;;;;;;;18.86;49.55;95584.69;108717;1280;22549;-90
2024/03/30 09:08:26;;;;;;;;;;;;;;;18.93;49.43;95586.63;108924;1275;24985;-91
2024/03/30 09:10:52;;;;;;;;;;;;;;;19.03;49.06;95594.07;108692;1275;124262;-90
2024/03/30 09:13:18;;;;;;;;;;;;;;;19.11;48.21;95581.73;108812;1277;22503;-90
2024/03/30 09:15:45;;;;;;;;;;;;;;;19.20;48.10;95579.63;108892;1275;124395;-91
2024/03/30 09:18:11;;;;;;;;;;;;;;;19.27;47.16;95570.92;108872;1275;23020;-90
2024/03/30 09:20:42;;;;;;;;;;;;;;;19.34;47.77;95568.58;108839;1278;25280;-91
2024/03/30 09:23:08;;;;;;;;;;;;;;;19.41;46.87;95570.89;108827;1275;124218;-90
2024/03/30 09:25:34;;;;;;;;;;;;;;;19.45;48.35;95568.38;108822;1278;24180;-90
2024/03/30 09:28:04;;;;;;;;;;;;;;;19.53;48.91;95571.80;108727;1275;124554;-89
2024/03/30 09:30:32;;;;;;;;;;;;;;;19.64;48.59;95578.06;108822;1277;22535;-92
2024/03/30 09:32:59;;;;;;;;;;;;;;;19.73;47.83;95569.41;108837;1275;24071;-89
2024/03/30 09:35:29;;;;;;;;;;;;;;;19.82;46.69;95573.38;108552;1278;124082;-90
2024/03/30 09:37:56;;;;;;;;;;;;;;;19.87;45.40;95574.89;108769;1276;22601;-88
2024/03/30 09:40:33;;;;;;;;;;;;;;;19.87;45.82;95574.31;107626;1268;1459517;-90
2024/03/30 09:43:10;;;;;;;;;;;;;;;19.88;46.54;95573.69;108831;1278;25373;-90
2024/03/30 09:46:07;;;;;;;;;;;;;;;19.97;45.52;95577.06;108523;1281;124482;-91
2024/03/30 09:48:33;;;;;;;;;;;;;;;20.03;45.40;95573.23;108663;1275;22534;-91
2024/03/30 09:51:00;;;;;;;;;;;;;;;20.07;44.97;95569.18;108849;1272;22742;-90
2024/03/30 09:53:32;;;;;;;;;;;;;;;20.10;44.64;95567.92;108847;1272;124175;-90
2024/03/30 09:55:58;;;;;;;;;;;;;;;20.12;44.90;95571.03;108855;1278;24180;-90
2024/03/30 09:58:35;;;;;;;;;;;;;;;20.15;44.48;95558.42;108810;1277;123876;-90
2024/03/30 10:01:05;;;;;;;;;;;;;;;20.18;44.63;95560.17;108703;1278;22586;-88
2024/03/30 10:03:33;;;;;;;;;;;;;;;20.21;43.91;95555.13;108575;1273;124338;-91
2024/03/30 10:06:09;;;;;;;;;;;;;;;20.31;43.73;95554.45;108593;1275;22630;-89
2024/03/30 10:09:05;;;;;;;;;;;;;;;20.39;44.61;95553.35;108656;1264;24204;-90
2024/03/30 10:12:05;;;;;;;;;;;;;;;20.47;41.36;95553.94;109016;1279;25229;-90
2024/03/30 10:15:37;;;;;;;;;;;;;;;;;;;;;
2024/03/30 10:18:51;;;;;;;;;;;;;;;20.64;43.00;95553.73;108977;1272;22472;-90
2024/03/30 10:21:41;;;;;;;;;;;;;;;20.72;41.80;95549.69;108799;1279;124875;-91
2024/03/30 10:24:33;;;;;;;;;;;;;;;20.79;41.59;95546.86;108849;1280;22563;-92
2024/03/30 10:27:49;;;;;;;;;;;;;;;;;;;;;
2024/03/30 10:30:31;;;;;;;;;;;;;;;21.01;40.53;95541.08;108879;1279;22548;-91
2024/03/30 10:33:04;;;;;;;;;;;;;;;21.08;39.02;95542.16;108709;1275;22463;-92
2024/03/30 10:35:37;;;;;;;;;;;;;;;21.16;38.60;95541.94;108652;1280;124612;-91
2024/03/30 10:38:05;;;;;;;;;;;;;;;21.21;36.70;95552.23;108876;1265;22919;-91
2024/03/30 10:40:42;;;;;;;;;;;;;;;21.23;38.20;95542.92;108622;1280;125054;-91
2024/03/30 10:43:22;;;;;;;;;;;;;;;21.20;38.56;95552.91;108505;1272;22636;-89
2024/03/30 10:45:49;;;;;;;;;;;;;;;21.24;36.06;95556.30;108564;1275;124371;-89
2024/03/30 10:48:16;;;;;;;;;;;;;;;21.20;36.63;95566.44;108645;1280;22703;-89
2024/03/30 10:50:44;;;;;;;;;;;;;;;21.14;36.30;95564.45;108607;1280;22682;-90
2024/03/30 10:53:11;;;;;;;;;;;;;;;21.06;36.25;95566.31;108588;1279;124267;-89
2024/03/30 10:55:37;;;;;;;;;;;;;;;21.05;35.68;95567.95;108705;1275;24231;-89
2024/03/30 10:58:04;;;;;;;;;;;;;;;21.06;37.24;95569.38;108981;1273;124608;-90
2024/03/30 11:00:31;;;;;;;;;;;;;;;21.07;36.87;95581.63;108877;1280;22622;-89
2024/03/30 11:03:04;;;;;;;;;;;;;;;21.16;37.22;95589.80;108712;1278;24160;-90
2024/03/30 11:05:45;;;;;;;;;;;;;;;21.25;38.48;95593.98;108569;1272;125150;-90
2024/03/30 11:08:18;;;;;;;;;;;;;;;21.34;37.39;95589.42;108705;1274;24936;-91
2024/03/30 11:11:56;;;;;;;;;;;;;;;;;;;;;
2024/03/30 11:14:38;;;;;;;;;;;;;;;21.21;36.83;95593.19;108542;1283;22624;-91
2024/03/30 11:17:21;;;;;;;;;;;;;;;21.14;37.30;95594.83;108337;1276;124379;-90
2024/03/30 11:19:53;;;;;;;;;;;;;;;21.11;36.67;95588.43;108388;1278;23077;-90
2024/03/30 11:22:32;;;;;;;;;;;;;;;21.09;37.06;95579.14;108296;1278;124622;-90
2024/03/30 11:24:59;;;;;;;;;;;;;;;21.06;37.79;95574.92;108584;1278;22984;-90
2024/03/30 11:27:28;;;;;;;;;;;;;;;21.05;37.91;95567.38;108439;1283;24208;-92
2024/03/30 11:30:02;;;;;;;;;;;;;;;21.02;36.72;95567.65;108313;1280;124672;-91
2024/03/30 11:32:35;;;;;;;;;;;;;;;20.95;37.34;95563.73;108406;1285;24198;-92
2024/03/30 11:35:15;;;;;;;;;;;;;;;20.93;36.82;95563.23;108201;1278;124536;-90
2024/03/30 11:37:44;;;;;;;;;;;;;;;20.92;37.22;95561.21;108517;1284;22537;-90
2024/03/30 11:40:12;;;;;;;;;;;;;;;20.93;37.25;95560.48;108175;1285;124712;-91
2024/03/30 11:42:47;;;;;;;;;;;;;;;21.03;36.81;95555.60;108297;1278;25397;-91
2024/03/30 11:45:16;;;;;;;;;;;;;;;21.15;36.64;95561.91;108390;1285;22651;-91
2024/03/30 11:48:23;;;;;;;;;;;;;;;;;;;;;
2024/03/30 11:51:30;;;;;;;;;;;;;;;21.37;37.75;95542.60;108484;1278;22526;-92
2024/03/30 11:54:49;;;;;;;;;;;;;;;21.41;36.92;95546.86;108173;1278;124586;-92
2024/03/30 11:57:26;;;;;;;;;;;;;;;21.36;37.50;95541.17;108394;1279;22534;-91
2024/03/30 11:59:56;;;;;;;;;;;;;;;21.34;36.54;95548.58;108494;1284;124628;-90
2024/03/30 12:02:25;;;;;;;;;;;;;;;21.34;36.73;95540.92;108452;1284;22651;-92
2024/03/30 12:08:04;;;;;;;;;;;;;;;21.28;35.90;95525.23;108415;1278;22576;-90
2024/03/30 12:10:35;;;;;;;;;;;;;;;21.23;35.65;95523.96;108283;1279;124634;-90
2024/03/30 12:13:02;;;;;;;;;;;;;;;21.13;34.56;95513.00;108368;1279;22575;-91
2024/03/30 12:15:29;;;;;;;;;;;;;;;21.05;34.38;95514.71;108438;1281;22470;-92
2024/03/30 12:17:56;;;;;;;;;;;;;;;20.96;33.67;95524.18;108200;1283;124274;-90
2024/03/30 12:20:23;;;;;;;;;;;;;;;20.91;34.36;95521.83;108396;1274;22532;-91
2024/03/30 12:23:15;;;;;;;;;;;;;;;20.83;33.47;95527.13;108290;1283;124351;-93
2024/03/30 12:25:42;;;;;;;;;;;;;;;20.82;34.28;95521.77;108404;1284;23109;-92
2024/03/30 12:32:29;;;;;;;;;;;;;;;20.90;34.81;95517.80;108537;1284;22537;-93
2024/03/30 12:35:09;;;;;;;;;;;;;;;20.90;33.94;95517.55;108505;1277;22523;-91
2024/03/30 12:37:40;;;;;;;;;;;;;;;20.90;35.19;95523.83;108329;1278;25224;-90
2024/03/30 12:40:07;;;;;;;;;;;;;;;20.91;35.50;95520.50;108408;1277;22554;-90
2024/03/30 12:42:33;;;;;;;;;;;;;;;20.93;35.02;95517.90;108264;1280;124056;-90
2024/03/30 12:45:01;;;;;;;;;;;;;;;21.00;34.55;95514.25;108426;1279;22546;-92
2024/03/30 12:47:28;;;;;;;;;;;;;;;21.12;35.00;95510.30;108256;1283;124342;-90
2024/03/30 12:50:00;;;;;;;;;;;;;;;21.24;35.51;95507.16;108387;1278;22459;-91
2024/03/30 12:52:27;;;;;;;;;;;;;;;21.36;35.28;95504.29;108264;1278;124521;-91
2024/03/30 12:54:53;;;;;;;;;;;;;;;21.39;34.45;95507.45;108369;1284;22694;-90
2024/03/30 12:57:22;;;;;;;;;;;;;;;21.40;34.46;95501.61;108361;1276;22483;-90
2024/03/30 12:59:50;;;;;;;;;;;;;;;21.42;34.75;95501.93;108284;1281;124299;-91
2024/03/30 13:02:16;;;;;;;;;;;;;;;21.47;35.36;95491.17;108437;1285;22489;-90
2024/03/30 13:04:42;;;;;;;;;;;;;;;21.53;35.28;95491.83;108419;1278;124730;-91
2024/03/30 13:07:09;;;;;;;;;;;;;;;21.55;34.10;95499.17;108428;1285;23324;-92
2024/03/30 13:09:38;;;;;;;;;;;;;;;21.53;34.61;95494.33;108546;1284;23919;-92
2024/03/30 13:12:06;;;;;;;;;;;;;;;21.49;34.06;95503.17;108300;1281;124869;-91
2024/03/30 13:14:36;;;;;;;;;;;;;;;21.37;32.39;95500.59;108560;1284;25397;-90
2024/03/30 13:17:07;;;;;;;;;;;;;;;21.28;33.64;95506.21;108375;1277;124295;-92
2024/03/30 13:19:33;;;;;;;;;;;;;;;21.25;34.76;95500.20;108516;1277;22529;-91